Portada
METAR-TAF:

METAR-TAF

Aeroports :

Saint-Denis, Reunió

latitud: 20-53S, longitud: 055-31E, altitud: 21 m

Observació

L'informe es va fer fa 29 minuts, a les 06:00 UTC
Vent 24 kt del Est/Sud-Est
Temperatura 22°C
Humitat 73%
Pressió 1020 hPa
Visibilitat 10 km o més

METAR: FMEE 070600Z AUTO 12024KT 9999 FEW020/// SCT039/// BKN070/// ///TCU 22/17 Q1020 TEMPO 12025G40KT BECMG FEW030 SCT080

Hora: 10:29 (06:29 UTC)

Pronòstic

L'informe es va fer fa 1 hora i 29 minuts, a les 05:00 UTC
Pronòstic vàlid del 07 a les 06 UTC al 08 a les 12 UTC
Vent 18 kt del Sud/Sud-Est
Visibilitat 10 km o més
Escasses núvols a una alçada de 3000 ft
Núvols disperses a una alçada de 8000 ft
Temporalment
l' 07 a les 06 UTC al 07 a les 12 UTC
Vent 25 kt del Est/Sud-Est amb ràfegues de 40 kt
Temporalment
l' 07 a les 12 UTC al 08 a les 12 UTC
Vent 20 kt del Est/Sud-Est amb ràfegues de 35 kt

TAF: FMEE 070500Z 0706/0812 15018KT 9999 FEW030 SCT080 TEMPO 0706/0712 12025G40KT TEMPO 0712/0812 12020G35KT

Observacions i pronòstics meteorològics de més de 4000 aeroports (METAR i TAF).

Les estacions disponibles són els punts grocs i vermells al mapa.

Posi el ratolí al punt desitjat per veure el nom de l'estació.

Feu clic per veure les observacions i els pronòstics meteorològics.

Per canviar el mapa: feu clic els botons verds amb una creu de color negre per apropar; al botó verd amb un guió per allunyar la imatge; o en les fletxes verdes per a mapes adjacents.


METAR-TAF: